Beirut, Lebanon
Current Conditions -  °F | °C
As of 9:00 AM on Thursday 27 Nov 2014 (Local Time) from OLBA Reporting Station
Broken Clouds Broken Clouds  
Wind Chill: 55°   Ceiling: 8000
Heat Index: 55°   Visibility: 5mi
Dew Point: 48°   Wind: 9mph
Humidity: 77%   Direction: 100°E
Pressure: 30.03"   Gusts: NA
Location:  33.89°N, 35.51°E
Report Text: OLBA 270600Z 10008KT 8000 FEW026 BKN080 13/09 Q1017
Loading
Personal Weather Stations






























Interactive Weather Map New forecast layout! Learn more

10-Day Weather Forecast

Advertisements
Track Severe Weather on mobile